Time;durP1;ratioP1;P1;durP2;ratioP2;P2;SDS_P1;SDS_P2;PMS_P1;PMS_P2;Temp;Humidity;BMP_temperature;BMP_pressure;BME280_temperature;BME280_humidity;BME280_pressure;Samples;Min_cycle;Max_cycle;Signal;HPM_P1;HPM_P2
2022/01/10 00:00:31;;;;;;;9.90;6.67;;;9.10;60.30;;;;;;5108956;28;20523;-52
2022/01/10 00:02:59;;;;;;;7.87;6.13;;;9.10;60.70;;;;;;5102510;27;20476;-54
2022/01/10 00:05:24;;;;;;;9.80;6.47;;;9.10;61.00;;;;;;5103231;28;20455;-54
2022/01/10 00:07:50;;;;;;;8.83;6.33;;;9.10;61.00;;;;;;5102999;28;20444;-53
2022/01/10 00:10:16;;;;;;;8.43;6.80;;;9.10;61.00;;;;;;5103518;28;20225;-51
2022/01/10 00:12:42;;;;;;;9.47;6.60;;;9.00;61.10;;;;;;5098480;28;20218;-54
2022/01/10 00:15:09;;;;;;;7.87;6.40;;;9.10;61.20;;;;;;5110132;28;20807;-53
2022/01/10 00:17:38;;;;;;;7.40;6.60;;;9.10;61.90;;;;;;5099330;28;20265;-51
2022/01/10 00:20:06;;;;;;;11.03;7.40;;;9.10;61.00;;;;;;5102465;28;20481;-55
2022/01/10 00:22:33;;;;;;;12.43;6.67;;;9.10;60.90;;;;;;5109766;28;20548;-52
2022/01/10 00:24:58;;;;;;;11.27;6.83;;;9.10;60.90;;;;;;5097782;28;20516;-53
2022/01/10 00:27:24;;;;;;;11.07;7.03;;;9.00;61.00;;;;;;5099991;28;20527;-54
2022/01/10 00:29:49;;;;;;;9.07;6.73;;;9.00;61.10;;;;;;5097590;28;20704;-53
2022/01/10 00:32:15;;;;;;;9.10;6.77;;;9.00;61.10;;;;;;5096075;28;20232;-52
2022/01/10 00:34:42;;;;;;;8.60;6.10;;;9.00;61.30;;;;;;5100862;28;20232;-53
2022/01/10 00:37:07;;;;;;;11.53;7.77;;;8.90;61.30;;;;;;5096861;28;20445;-52
2022/01/10 00:39:33;;;;;;;12.60;7.17;;;8.90;61.40;;;;;;5100117;28;20195;-53
2022/01/10 00:41:58;;;;;;;7.03;6.23;;;8.90;61.20;;;;;;5109403;28;20225;-54
2022/01/10 00:44:26;;;;;;;7.50;6.27;;;9.00;61.30;;;;;;5106661;28;20194;-53
2022/01/10 00:46:53;;;;;;;8.63;6.83;;;9.00;61.10;;;;;;5107215;28;20238;-54
2022/01/10 00:49:19;;;;;;;8.17;6.90;;;9.10;61.00;;;;;;5102012;28;20433;-52
2022/01/10 00:51:45;;;;;;;9.97;7.07;;;9.10;60.70;;;;;;5109747;28;20436;-54
2022/01/10 00:54:11;;;;;;;8.43;6.80;;;9.10;60.50;;;;;;5099725;28;20862;-53
2022/01/10 00:56:36;;;;;;;8.70;7.00;;;9.10;60.40;;;;;;5105941;28;20561;-54
2022/01/10 00:59:02;;;;;;;8.60;7.07;;;9.10;60.40;;;;;;5103656;28;20182;-51
2022/01/10 01:01:28;;;;;;;11.30;7.10;;;9.10;60.60;;;;;;5105248;28;20226;-51
2022/01/10 01:03:53;;;;;;;10.00;6.87;;;9.00;60.70;;;;;;5102347;28;20198;-50
2022/01/10 01:06:19;;;;;;;12.33;6.73;;;9.00;61.10;;;;;;5104257;28;20187;-51
2022/01/10 01:08:46;;;;;;;11.03;6.67;;;9.00;61.30;;;;;;5103898;28;20191;-51
2022/01/10 01:13:59;;;;;;;8.80;6.47;;;9.00;61.30;;;;;;5097033;28;20513;-53
2022/01/10 01:17:13;;;;;;;7.77;6.00;;;9.10;61.10;;;;;;5091809;28;20944;-51
2022/01/10 01:24:32;;;;;;;7.47;6.10;;;8.80;61.70;;;;;;5055574;28;20216;-50
2022/01/10 01:26:58;;;;;;;15.57;6.40;;;8.70;61.90;;;;;;5105359;28;20860;-51
2022/01/10 01:29:27;;;;;;;9.07;6.77;;;8.80;62.30;;;;;;5101245;28;20494;-53
2022/01/10 01:31:54;;;;;;;7.67;6.87;;;8.80;61.90;;;;;;5098782;28;20449;-51
2022/01/10 01:34:22;;;;;;;9.13;6.30;;;8.90;61.70;;;;;;5105355;28;20527;-50
2022/01/10 01:36:52;;;;;;;9.60;7.23;;;8.90;61.60;;;;;;5106104;28;20429;-52
2022/01/10 01:39:23;;;;;;;9.60;6.83;;;8.90;61.40;;;;;;5106442;28;20954;-50
2022/01/10 01:41:56;;;;;;;9.57;7.10;;;8.80;62.90;;;;;;5100312;28;20481;-51
2022/01/10 01:44:22;;;;;;;8.13;6.30;;;8.60;62.50;;;;;;5098634;28;20444;-52
2022/01/10 01:46:48;;;;;;;9.17;6.80;;;8.40;63.00;;;;;;5106989;28;21388;-51
2022/01/10 01:49:14;;;;;;;10.80;7.57;;;8.50;63.60;;;;;;5108977;28;20568;-50
2022/01/10 01:51:40;;;;;;;9.80;7.17;;;8.60;63.40;;;;;;5097588;28;20593;-51
2022/01/10 01:54:08;;;;;;;8.90;6.77;;;8.70;62.90;;;;;;5103942;28;20455;-50
2022/01/10 01:56:34;;;;;;;8.93;6.90;;;8.70;62.40;;;;;;5108617;28;20848;-51
2022/01/10 01:59:00;;;;;;;8.03;6.30;;;8.60;62.70;;;;;;5102814;28;20436;-50
2022/01/10 02:01:26;;;;;;;9.60;7.67;;;8.50;63.50;;;;;;5104555;28;20595;-50
2022/01/10 02:03:53;;;;;;;9.43;7.50;;;8.40;63.90;;;;;;5100109;28;20527;-51
2022/01/10 02:06:18;;;;;;;8.77;6.77;;;8.60;63.80;;;;;;5107381;28;20615;-52
2022/01/10 02:08:44;;;;;;;9.93;7.07;;;8.70;63.30;;;;;;5105728;28;20467;-52
2022/01/10 02:11:13;;;;;;;11.63;7.30;;;8.80;62.90;;;;;;5092544;28;20187;-50
2022/01/10 02:13:40;;;;;;;10.40;8.00;;;8.90;62.60;;;;;;5091245;28;20223;-52
2022/01/10 02:16:08;;;;;;;9.67;7.07;;;8.90;62.60;;;;;;5092629;28;20436;-53
2022/01/10 02:18:34;;;;;;;10.27;7.13;;;8.90;62.70;;;;;;5099282;28;20447;-51
2022/01/10 02:21:03;;;;;;;9.47;6.33;;;8.90;62.50;;;;;;5103549;28;20432;-54
2022/01/10 02:23:30;;;;;;;9.27;6.87;;;8.90;62.50;;;;;;5096562;28;20512;-53
2022/01/10 02:25:56;;;;;;;8.07;6.97;;;8.90;62.10;;;;;;5102680;28;20464;-51
2022/01/10 02:28:22;;;;;;;10.43;6.80;;;9.00;62.00;;;;;;5104190;28;20545;-51
2022/01/10 02:30:56;;;;;;;9.70;7.60;;;9.00;62.00;;;;;;5100326;28;21065;-52
2022/01/10 02:33:30;;;;;;;11.00;7.30;;;9.00;61.80;;;;;;5101879;28;20448;-51
2022/01/10 02:36:11;;;;;;;10.27;7.47;;;9.10;61.80;;;;;;5101292;28;20473;-50
2022/01/10 02:38:36;;;;;;;12.67;7.70;;;9.10;61.50;;;;;;5106844;28;20483;-54
2022/01/10 02:41:03;;;;;;;8.63;7.23;;;9.10;61.30;;;;;;5098929;28;20973;-51
2022/01/10 02:43:29;;;;;;;9.43;7.40;;;9.10;61.60;;;;;;5102105;28;20313;-53
2022/01/10 02:45:56;;;;;;;8.83;6.97;;;9.00;61.60;;;;;;5104618;28;20523;-52
2022/01/10 02:48:22;;;;;;;12.53;7.60;;;9.00;61.70;;;;;;5098566;28;20244;-51
2022/01/10 02:50:47;;;;;;;10.60;7.70;;;8.90;61.70;;;;;;5096884;28;20516;-54
2022/01/10 02:53:13;;;;;;;11.17;7.23;;;8.90;62.00;;;;;;5097101;28;20536;-52
2022/01/10 02:55:39;;;;;;;10.27;7.43;;;8.90;62.00;;;;;;5097478;28;20623;-52
2022/01/10 02:58:04;;;;;;;8.27;7.33;;;9.00;61.80;;;;;;5105598;28;20202;-53
2022/01/10 03:00:30;;;;;;;9.40;7.50;;;9.00;61.50;;;;;;5108675;28;20202;-52
2022/01/10 03:02:57;;;;;;;8.63;6.60;;;9.10;62.30;;;;;;5104992;28;20222;-53
2022/01/10 03:05:24;;;;;;;10.13;7.00;;;9.10;61.50;;;;;;5107980;28;20187;-54
2022/01/10 03:07:55;;;;;;;8.30;7.07;;;9.10;61.50;;;;;;5107976;28;20904;-54
2022/01/10 03:10:20;;;;;;;10.20;6.50;;;9.10;61.60;;;;;;5098808;28;20492;-52
2022/01/10 03:12:48;;;;;;;10.10;6.60;;;9.10;61.40;;;;;;5104497;28;20844;-53
2022/01/10 03:15:13;;;;;;;9.50;7.70;;;9.10;61.40;;;;;;5102139;28;20263;-54
2022/01/10 03:17:39;;;;;;;9.67;6.87;;;9.10;61.40;;;;;;5102638;28;20452;-53
2022/01/10 03:20:07;;;;;;;7.77;6.87;;;9.10;61.30;;;;;;5105012;28;20201;-52
2022/01/10 03:22:33;;;;;;;8.20;6.67;;;9.10;61.50;;;;;;5109290;28;20226;-53
2022/01/10 03:24:59;;;;;;;10.63;7.17;;;9.10;61.40;;;;;;5099387;28;20442;-52
2022/01/10 03:27:25;;;;;;;9.80;7.33;;;9.10;61.40;;;;;;5102787;28;20230;-50
2022/01/10 03:29:51;;;;;;;9.53;8.00;;;9.10;61.70;;;;;;5097749;28;20468;-54
2022/01/10 03:32:17;;;;;;;9.97;7.17;;;9.10;61.90;;;;;;5092355;28;20195;-54
2022/01/10 03:34:43;;;;;;;9.57;7.03;;;9.10;62.00;;;;;;5107811;28;20462;-52
2022/01/10 03:37:09;;;;;;;8.63;6.70;;;9.10;61.90;;;;;;5100644;28;20190;-55
2022/01/10 03:39:35;;;;;;;7.60;6.77;;;9.10;62.00;;;;;;5105496;27;20190;-54
2022/01/10 03:42:02;;;;;;;13.80;6.97;;;9.10;61.90;;;;;;5109950;28;20476;-54
2022/01/10 03:44:28;;;;;;;8.73;7.23;;;9.10;61.70;;;;;;5102454;28;20187;-52
2022/01/10 03:46:53;;;;;;;8.90;6.83;;;9.10;61.70;;;;;;5100961;28;20432;-51
2022/01/10 03:49:19;;;;;;;10.10;7.00;;;9.10;61.70;;;;;;5106385;28;20188;-53
2022/01/10 03:51:45;;;;;;;10.97;8.03;;;9.10;61.90;;;;;;5108635;28;20255;-54
2022/01/10 03:54:11;;;;;;;10.07;7.33;;;9.10;61.90;;;;;;5109822;28;20292;-50
2022/01/10 03:56:36;;;;;;;7.83;6.60;;;9.10;61.70;;;;;;5108942;28;20214;-53
2022/01/10 03:59:04;;;;;;;8.50;7.33;;;9.10;61.70;;;;;;5107236;28;20815;-53
2022/01/10 04:01:30;;;;;;;9.17;7.50;;;9.10;61.80;;;;;;5094844;28;20219;-51
2022/01/10 04:03:56;;;;;;;9.30;7.50;;;9.10;61.90;;;;;;5096577;28;20441;-51
2022/01/10 04:06:22;;;;;;;7.73;6.20;;;9.20;62.00;;;;;;5099398;28;20566;-51
2022/01/10 04:08:48;;;;;;;9.93;7.37;;;9.20;61.90;;;;;;5098967;28;20523;-51
2022/01/10 04:11:13;;;;;;;7.93;6.80;;;9.20;62.00;;;;;;5101621;28;20867;-52
2022/01/10 04:13:40;;;;;;;8.27;6.57;;;9.20;62.00;;;;;;5105498;28;20229;-51
2022/01/10 04:16:06;;;;;;;12.07;8.13;;;9.20;62.00;;;;;;5109112;28;20220;-52
2022/01/10 04:18:32;;;;;;;9.27;7.67;;;9.20;61.90;;;;;;5110906;28;20436;-53
2022/01/10 04:20:58;;;;;;;10.07;6.47;;;9.20;61.80;;;;;;5110438;28;20486;-51
2022/01/10 04:23:24;;;;;;;10.30;8.10;;;9.10;61.80;;;;;;5111244;28;20230;-51
2022/01/10 04:25:51;;;;;;;7.80;7.00;;;9.10;62.50;;;;;;5109203;28;20860;-50
2022/01/10 04:28:17;;;;;;;9.53;8.00;;;9.10;61.70;;;;;;5110291;28;20448;-52
2022/01/10 04:30:42;;;;;;;10.40;7.83;;;9.10;61.70;;;;;;5105262;28;20492;-51
2022/01/10 04:33:10;;;;;;;10.60;7.70;;;9.10;61.70;;;;;;5107538;28;20455;-50
2022/01/10 04:35:35;;;;;;;10.20;7.43;;;9.10;61.70;;;;;;5091700;28;20201;-50
2022/01/10 04:38:02;;;;;;;9.20;8.07;;;9.20;61.80;;;;;;5094932;28;22448;-52
2022/01/10 04:40:27;;;;;;;11.20;7.00;;;9.20;61.90;;;;;;5099161;28;20199;-50
2022/01/10 04:42:53;;;;;;;7.57;6.77;;;9.20;61.80;;;;;;5102998;28;20533;-51
2022/01/10 04:45:19;;;;;;;8.33;6.87;;;9.20;62.00;;;;;;5097260;28;20199;-50
2022/01/10 04:47:45;;;;;;;9.17;7.23;;;9.20;62.10;;;;;;5098895;28;20251;-50
2022/01/10 04:52:45;;;;;;;10.50;7.07;;;9.20;62.30;;;;;;5103191;28;20190;-53
2022/01/10 04:55:12;;;;;;;9.30;7.30;;;9.20;62.20;;;;;;5102789;28;20848;-51
2022/01/10 04:57:38;;;;;;;10.10;7.63;;;9.20;62.00;;;;;;5096597;28;20193;-52
2022/01/10 05:00:05;;;;;;;8.13;7.03;;;9.30;62.10;;;;;;5097060;28;20448;-54
2022/01/10 05:02:31;;;;;;;8.20;7.40;;;9.20;62.00;;;;;;5100856;28;20275;-51
2022/01/10 05:04:56;;;;;;;8.23;6.80;;;9.20;62.20;;;;;;5100007;28;20444;-51
2022/01/10 05:07:22;;;;;;;12.63;6.90;;;9.20;62.30;;;;;;5099679;28;20191;-50
2022/01/10 05:09:48;;;;;;;8.23;7.40;;;9.30;62.20;;;;;;5102367;28;20225;-51
2022/01/10 05:12:13;;;;;;;8.90;7.50;;;9.30;62.20;;;;;;5098708;28;20199;-52
2022/01/10 05:14:40;;;;;;;9.47;6.90;;;9.30;62.20;;;;;;5104008;28;20190;-50
2022/01/10 05:17:06;;;;;;;8.10;6.40;;;9.30;62.10;;;;;;5106577;28;20201;-51
2022/01/10 05:19:32;;;;;;;8.30;7.50;;;9.30;62.20;;;;;;5098024;28;20519;-50
2022/01/10 05:21:58;;;;;;;10.40;7.57;;;9.30;62.20;;;;;;5101485;28;20222;-52
2022/01/10 05:24:24;;;;;;;11.20;7.57;;;9.30;62.10;;;;;;5099757;28;20560;-52
2022/01/10 05:26:49;;;;;;;10.30;7.57;;;9.30;62.00;;;;;;5098315;28;20199;-50
2022/01/10 05:29:16;;;;;;;12.50;7.70;;;9.40;62.00;;;;;;5103503;28;20253;-50
2022/01/10 05:31:41;;;;;;;9.07;7.00;;;9.40;62.00;;;;;;5101766;28;20186;-50
2022/01/10 05:34:07;;;;;;;9.57;7.97;;;9.40;61.90;;;;;;5106482;28;20471;-51
2022/01/10 05:36:33;;;;;;;8.23;7.20;;;9.40;61.90;;;;;;5099096;28;20278;-53
2022/01/10 05:38:58;;;;;;;8.37;7.47;;;9.40;62.00;;;;;;5109805;28;20224;-51
2022/01/10 05:41:24;;;;;;;8.90;6.83;;;9.40;61.90;;;;;;5105760;28;20239;-53
2022/01/10 05:43:50;;;;;;;7.93;7.23;;;9.40;61.80;;;;;;5103243;28;20244;-51
2022/01/10 05:46:19;;;;;;;9.50;7.47;;;9.40;61.80;;;;;;5103336;28;20451;-54
2022/01/10 05:48:47;;;;;;;8.53;7.63;;;9.40;61.70;;;;;;5097909;28;20440;-52
2022/01/10 05:51:14;;;;;;;11.37;7.77;;;9.40;61.90;;;;;;5104822;28;20870;-54
2022/01/10 05:53:40;;;;;;;7.60;6.80;;;9.40;61.80;;;;;;5104820;28;20442;-56
2022/01/10 05:56:06;;;;;;;8.43;7.40;;;9.40;61.60;;;;;;5104650;28;21149;-53
2022/01/10 05:58:31;;;;;;;9.30;7.90;;;9.40;61.40;;;;;;5105125;28;20190;-53
2022/01/10 06:00:57;;;;;;;9.57;8.10;;;9.40;61.30;;;;;;5105660;28;20190;-54
2022/01/10 06:03:22;;;;;;;15.70;8.43;;;9.40;61.30;;;;;;5108901;28;20754;-54
2022/01/10 06:05:48;;;;;;;8.70;7.77;;;9.30;61.80;;;;;;5105148;28;20296;-54
2022/01/10 06:08:14;;;;;;;8.07;7.27;;;9.30;61.80;;;;;;5103067;28;20668;-53
2022/01/10 06:10:39;;;;;;;9.43;7.60;;;9.30;61.90;;;;;;5106806;28;20202;-53
2022/01/10 06:13:05;;;;;;;13.47;8.57;;;9.30;62.00;;;;;;5105369;28;20197;-54
2022/01/10 06:15:32;;;;;;;10.13;8.43;;;9.40;62.00;;;;;;5093714;28;20194;-53
2022/01/10 06:17:57;;;;;;;9.90;8.90;;;9.40;61.80;;;;;;5099052;28;20198;-53
2022/01/10 06:20:23;;;;;;;10.70;8.40;;;9.40;61.60;;;;;;5099629;28;20436;-53
2022/01/10 06:22:48;;;;;;;9.57;8.57;;;9.40;61.50;;;;;;5097568;28;20295;-52
2022/01/10 06:25:17;;;;;;;9.83;7.80;;;9.40;61.50;;;;;;5109078;28;20201;-53
2022/01/10 06:27:42;;;;;;;10.40;8.53;;;9.40;61.60;;;;;;5104061;28;20267;-53
2022/01/10 06:30:08;;;;;;;14.70;8.00;;;9.40;61.60;;;;;;5100399;28;20985;-53
2022/01/10 06:32:34;;;;;;;12.20;8.30;;;9.40;61.60;;;;;;5112482;28;20202;-55
2022/01/10 06:35:00;;;;;;;14.20;8.47;;;9.40;61.70;;;;;;5095848;28;20428;-50
2022/01/10 06:37:26;;;;;;;16.70;7.93;;;9.50;61.90;;;;;;5093668;28;20190;-50
2022/01/10 06:39:52;;;;;;;13.07;8.37;;;9.50;61.90;;;;;;5104402;28;20470;-51
2022/01/10 06:42:18;;;;;;;15.30;9.03;;;9.60;63.30;;;;;;5111690;28;20268;-50
2022/01/10 06:44:44;;;;;;;18.60;9.47;;;9.90;64.00;;;;;;5112231;28;20472;-50
2022/01/10 06:47:09;;;;;;;16.03;8.53;;;10.20;62.80;;;;;;5106368;28;20476;-53
2022/01/10 06:49:36;;;;;;;14.30;9.27;;;10.40;61.90;;;;;;5099202;28;20226;-53
2022/01/10 06:52:02;;;;;;;12.77;9.03;;;10.50;61.30;;;;;;5099553;28;20249;-50
2022/01/10 06:54:27;;;;;;;11.00;7.53;;;10.70;60.70;;;;;;5109010;28;20436;-53
2022/01/10 06:56:54;;;;;;;15.80;9.53;;;10.90;59.80;;;;;;5104151;28;20506;-50
2022/01/10 06:59:19;;;;;;;10.33;8.33;;;11.00;59.30;;;;;;5105220;28;20232;-53
2022/01/10 07:01:45;;;;;;;12.27;9.30;;;11.10;58.50;;;;;;5102631;28;20467;-53
2022/01/10 07:04:12;;;;;;;15.10;12.37;;;11.20;57.90;;;;;;5107013;28;20187;-52
2022/01/10 07:06:40;;;;;;;11.57;8.73;;;11.30;57.60;;;;;;5097633;28;20441;-52
2022/01/10 07:09:07;;;;;;;10.80;7.10;;;11.30;57.20;;;;;;5101435;28;20443;-53
2022/01/10 07:11:32;;;;;;;9.10;6.73;;;11.30;56.30;;;;;;5099633;28;20790;-51
2022/01/10 07:13:58;;;;;;;8.40;7.00;;;11.20;56.10;;;;;;5106124;28;20544;-52
2022/01/10 07:16:23;;;;;;;7.07;6.37;;;11.20;56.10;;;;;;5095985;28;20888;-52
2022/01/10 07:18:49;;;;;;;7.07;6.37;;;11.10;56.30;;;;;;5109210;28;20187;-53
2022/01/10 07:21:14;;;;;;;9.70;6.47;;;11.10;56.30;;;;;;5104953;28;20191;-52
2022/01/10 07:23:40;;;;;;;7.93;6.20;;;11.20;56.60;;;;;;5107738;28;20226;-51
2022/01/10 07:26:05;;;;;;;10.57;5.90;;;11.20;56.00;;;;;;5109235;28;20187;-50
2022/01/10 07:28:31;;;;;;;8.70;7.20;;;11.20;55.60;;;;;;5105356;28;20234;-50
2022/01/10 07:30:57;;;;;;;11.83;7.50;;;11.20;55.30;;;;;;5109622;28;20198;-50
2022/01/10 07:33:23;;;;;;;9.67;7.90;;;11.20;55.20;;;;;;5108927;28;20194;-50
2022/01/10 07:35:48;;;;;;;12.23;9.27;;;11.20;55.30;;;;;;5098062;28;20194;-49
2022/01/10 07:38:14;;;;;;;10.97;7.97;;;11.20;55.30;;;;;;5100291;28;20201;-50
2022/01/10 07:40:39;;;;;;;13.10;8.70;;;11.20;55.10;;;;;;5106430;28;20190;-50
2022/01/10 07:43:05;;;;;;;10.83;8.33;;;11.10;55.20;;;;;;5104757;28;20226;-51
2022/01/10 07:45:30;;;;;;;11.77;8.90;;;11.10;55.40;;;;;;5100794;28;20198;-50
2022/01/10 07:47:57;;;;;;;11.17;9.23;;;11.00;55.60;;;;;;5096048;28;20199;-49
2022/01/10 07:50:22;;;;;;;15.17;10.53;;;11.00;55.70;;;;;;5103180;28;20192;-49
2022/01/10 07:52:48;;;;;;;11.00;8.80;;;11.00;55.80;;;;;;5092504;28;20436;-51
2022/01/10 07:55:14;;;;;;;10.93;9.63;;;11.00;55.90;;;;;;5100786;28;20205;-50
2022/01/10 07:57:39;;;;;;;13.17;10.20;;;11.00;56.00;;;;;;5101288;28;20662;-52
2022/01/10 08:00:06;;;;;;;14.37;9.20;;;11.10;55.90;;;;;;5098589;28;20194;-53
2022/01/10 08:02:32;;;;;;;16.87;9.90;;;11.10;56.00;;;;;;5112639;28;20222;-51
2022/01/10 08:04:57;;;;;;;11.40;8.70;;;11.10;55.60;;;;;;5111427;28;20451;-54
2022/01/10 08:07:23;;;;;;;12.13;8.63;;;11.00;55.20;;;;;;5093709;28;20560;-53
2022/01/10 08:09:49;;;;;;;13.70;9.20;;;11.00;55.20;;;;;;5106591;28;20278;-53
2022/01/10 08:12:14;;;;;;;12.33;9.07;;;10.90;55.40;;;;;;5106142;28;20190;-53
2022/01/10 08:14:41;;;;;;;17.63;9.87;;;10.90;55.60;;;;;;5111815;28;20198;-51
2022/01/10 08:17:07;;;;;;;15.40;9.57;;;10.90;55.70;;;;;;5102539;28;20332;-54
2022/01/10 08:19:34;;;;;;;12.17;9.60;;;11.00;55.80;;;;;;5094381;28;20575;-50
2022/01/10 08:22:00;;;;;;;15.43;9.87;;;11.00;55.50;;;;;;5100193;28;20242;-51
2022/01/10 08:24:26;;;;;;;10.40;9.50;;;11.00;55.40;;;;;;5093263;28;20455;-51
2022/01/10 08:26:53;;;;;;;13.20;9.27;;;11.00;55.20;;;;;;5107729;28;20432;-50
2022/01/10 08:29:19;;;;;;;18.20;10.60;;;11.00;55.20;;;;;;5108368;28;20230;-54
2022/01/10 08:31:45;;;;;;;12.20;10.07;;;11.00;55.10;;;;;;5106722;28;20436;-49
2022/01/10 08:34:12;;;;;;;11.93;10.70;;;11.00;55.20;;;;;;5111329;28;21057;-53
2022/01/10 08:36:38;;;;;;;10.93;9.83;;;11.00;55.50;;;;;;5091856;28;20275;-49
2022/01/10 08:39:05;;;;;;;13.37;9.93;;;11.10;55.50;;;;;;5106052;28;20603;-52
2022/01/10 08:41:32;;;;;;;11.73;9.63;;;11.20;55.30;;;;;;5107452;28;20466;-50
2022/01/10 08:43:58;;;;;;;12.47;9.47;;;11.20;55.10;;;;;;5090655;28;20519;-52
2022/01/10 08:46:23;;;;;;;15.17;9.83;;;11.20;54.80;;;;;;5103662;28;20444;-50
2022/01/10 08:48:50;;;;;;;11.50;9.13;;;11.10;54.90;;;;;;5109297;28;20201;-53
2022/01/10 08:51:17;;;;;;;12.60;9.00;;;11.10;55.30;;;;;;5105003;28;20220;-52
2022/01/10 08:53:42;;;;;;;10.43;8.53;;;11.00;55.40;;;;;;5107097;28;20448;-50
2022/01/10 08:56:08;;;;;;;11.60;9.47;;;10.90;55.40;;;;;;5107674;28;20963;-50
2022/01/10 08:58:34;;;;;;;13.67;8.80;;;10.80;55.80;;;;;;5092318;28;20207;-53
2022/01/10 09:01:01;;;;;;;10.93;8.03;;;10.80;56.10;;;;;;5095690;28;20248;-52
2022/01/10 09:03:26;;;;;;;11.33;8.20;;;10.80;56.10;;;;;;5091557;28;20227;-49
2022/01/10 09:05:54;;;;;;;13.53;8.73;;;10.90;56.10;;;;;;5090978;28;20568;-53
2022/01/10 09:08:22;;;;;;;10.87;8.43;;;10.90;55.80;;;;;;5096040;28;20182;-53
2022/01/10 09:10:47;;;;;;;15.23;8.17;;;10.90;55.60;;;;;;5095006;28;20426;-53
2022/01/10 09:13:13;;;;;;;12.70;9.57;;;10.90;55.80;;;;;;5108759;28;20413;-53
2022/01/10 09:15:38;;;;;;;16.70;9.73;;;10.80;55.80;;;;;;5111147;28;20565;-51
2022/01/10 09:18:04;;;;;;;12.87;9.50;;;10.80;56.00;;;;;;5111072;28;20187;-53
2022/01/10 09:20:30;;;;;;;12.37;7.83;;;10.70;56.00;;;;;;5099974;28;20662;-54
2022/01/10 09:22:56;;;;;;;12.87;9.70;;;10.70;56.00;;;;;;5103050;28;20260;-53
2022/01/10 09:25:22;;;;;;;11.30;8.67;;;10.50;56.20;;;;;;5099972;28;20265;-53
2022/01/10 09:27:48;;;;;;;10.33;8.77;;;10.50;56.40;;;;;;5101584;28;20441;-51
2022/01/10 09:30:14;;;;;;;12.30;10.03;;;10.60;56.60;;;;;;5103722;28;20501;-52
2022/01/10 09:32:40;;;;;;;14.63;9.17;;;10.70;56.70;;;;;;5106202;28;20900;-51
2022/01/10 09:35:07;;;;;;;14.40;8.47;;;10.80;56.80;;;;;;5099303;28;20188;-52
2022/01/10 09:37:33;;;;;;;12.00;8.97;;;11.00;56.80;;;;;;5108445;28;20928;-52
2022/01/10 09:39:58;;;;;;;9.97;8.40;;;11.00;56.30;;;;;;5102368;28;20451;-51
2022/01/10 09:42:24;;;;;;;18.17;10.70;;;11.10;56.00;;;;;;5100772;28;20651;-54
2022/01/10 09:44:50;;;;;;;11.47;10.17;;;11.20;55.70;;;;;;5098899;28;20202;-53
2022/01/10 09:47:16;;;;;;;12.77;9.10;;;11.20;55.60;;;;;;5104681;28;20482;-52
2022/01/10 09:49:41;;;;;;;18.30;11.20;;;11.30;55.30;;;;;;5101898;28;20600;-51
2022/01/10 09:52:07;;;;;;;11.57;8.80;;;11.40;55.20;;;;;;5102058;28;20205;-54
2022/01/10 09:54:33;;;;;;;12.40;8.50;;;11.40;55.00;;;;;;5108818;28;20255;-54
2022/01/10 09:56:59;;;;;;;14.10;9.60;;;11.50;55.10;;;;;;5100256;28;20543;-51
2022/01/10 09:59:25;;;;;;;13.13;8.53;;;11.60;55.10;;;;;;5104004;28;21745;-51
2022/01/10 10:01:51;;;;;;;10.63;9.23;;;11.60;54.90;;;;;;5107398;28;20686;-53
2022/01/10 10:04:18;;;;;;;12.40;9.40;;;11.70;54.90;;;;;;5104674;28;20805;-54
2022/01/10 10:06:45;;;;;;;15.10;9.63;;;11.80;54.90;;;;;;5095993;28;20921;-51
2022/01/10 10:09:11;;;;;;;9.80;7.90;;;11.80;54.60;;;;;;5109275;28;20429;-51
2022/01/10 10:11:49;;;;;;;11.47;8.63;;;11.80;54.30;;;;;;5110761;28;20806;-51
2022/01/10 10:14:17;;;;;;;11.10;7.37;;;11.80;54.00;;;;;;5103116;28;20432;-51
2022/01/10 10:16:51;;;;;;;10.30;8.10;;;11.80;54.20;;;;;;5104661;28;20445;-53
2022/01/10 10:19:28;;;;;;;12.07;8.47;;;11.90;54.50;;;;;;5101556;28;20429;-52
2022/01/10 10:21:58;;;;;;;13.00;7.77;;;11.90;54.30;;;;;;5103378;28;20502;-53
2022/01/10 10:24:24;;;;;;;10.63;7.83;;;11.90;54.20;;;;;;5101431;28;20530;-54
2022/01/10 10:26:51;;;;;;;12.47;7.87;;;11.90;53.80;;;;;;5109009;28;20460;-52
2022/01/10 10:29:18;;;;;;;11.97;9.20;;;11.80;53.80;;;;;;5105728;28;20503;-51
2022/01/10 10:31:54;;;;;;;17.07;10.27;;;11.90;54.10;;;;;;5112727;28;20446;-52
2022/01/10 10:34:31;;;;;;;17.40;9.20;;;12.00;54.30;;;;;;5109797;28;20424;-54
2022/01/10 10:37:04;;;;;;;11.83;10.20;;;12.00;53.90;;;;;;5107009;28;20469;-51
2022/01/10 10:39:31;;;;;;;11.70;8.80;;;12.00;53.80;;;;;;5106965;28;20449;-51
2022/01/10 10:42:01;;;;;;;15.10;9.77;;;12.10;53.60;;;;;;5106897;28;20484;-52
2022/01/10 10:44:28;;;;;;;9.77;7.90;;;12.10;53.70;;;;;;5110556;28;20847;-50
2022/01/10 10:46:54;;;;;;;14.37;9.80;;;12.00;53.60;;;;;;5103438;28;20803;-52
2022/01/10 10:49:21;;;;;;;9.23;7.20;;;12.10;53.50;;;;;;5104590;28;20472;-51
2022/01/10 10:51:52;;;;;;;16.20;8.50;;;12.10;53.40;;;;;;5110630;28;20228;-50
2022/01/10 10:54:18;;;;;;;10.30;7.90;;;12.10;52.80;;;;;;5107473;28;20833;-48
2022/01/10 10:56:45;;;;;;;10.80;7.40;;;12.10;52.80;;;;;;5100335;28;20486;-51
2022/01/10 10:59:12;;;;;;;9.83;8.33;;;12.10;52.60;;;;;;5102132;28;20522;-51
2022/01/10 11:01:40;;;;;;;10.77;8.00;;;12.10;52.80;;;;;;5105658;28;20447;-51
2022/01/10 11:04:09;;;;;;;10.90;7.50;;;12.20;53.10;;;;;;5106340;28;20535;-51
2022/01/10 11:06:36;;;;;;;15.70;8.43;;;12.30;53.40;;;;;;5104513;28;20428;-52
2022/01/10 11:09:04;;;;;;;9.67;7.17;;;12.30;53.10;;;;;;5111142;28;20423;-50
2022/01/10 11:11:31;;;;;;;11.03;7.43;;;12.30;53.10;;;;;;5110062;28;20489;-52
2022/01/10 11:13:58;;;;;;;13.83;8.20;;;12.40;53.00;;;;;;5106867;28;20853;-50
2022/01/10 11:16:24;;;;;;;11.03;7.97;;;12.40;52.80;;;;;;5109228;28;20464;-51
2022/01/10 11:18:50;;;;;;;9.93;8.10;;;12.50;52.90;;;;;;5101344;28;20880;-50
2022/01/10 11:21:16;;;;;;;14.77;8.33;;;12.40;52.40;;;;;;5104941;28;20444;-52
2022/01/10 11:23:46;;;;;;;14.90;8.73;;;12.50;53.00;;;;;;5104986;28;20222;-54
2022/01/10 11:26:14;;;;;;;13.23;8.70;;;12.50;53.20;;;;;;5107142;28;20455;-52
2022/01/10 11:28:52;;;;;;;12.20;8.47;;;12.60;53.20;;;;;;5107608;28;21065;-54
2022/01/10 11:31:20;;;;;;;10.80;8.70;;;12.60;52.70;;;;;;5106333;28;20965;-54
2022/01/10 11:33:46;;;;;;;10.23;7.70;;;12.50;52.10;;;;;;5099632;28;20883;-55
2022/01/10 11:36:13;;;;;;;12.00;8.00;;;12.50;52.00;;;;;;5113196;28;20548;-51
2022/01/10 11:38:44;;;;;;;10.00;7.80;;;12.40;52.60;;;;;;5097286;28;20449;-53
2022/01/10 11:41:28;;;;;;;10.80;8.87;;;12.30;52.40;;;;;;5104183;28;20441;-52
2022/01/10 11:43:55;;;;;;;17.47;8.33;;;12.20;52.70;;;;;;5112188;28;20539;-53
2022/01/10 11:46:23;;;;;;;14.10;8.40;;;12.00;52.90;;;;;;5111627;28;20802;-51
2022/01/10 11:49:00;;;;;;;13.93;8.07;;;12.00;53.20;;;;;;5107937;28;20433;-53
2022/01/10 11:51:31;;;;;;;24.13;9.27;;;12.00;53.70;;;;;;5112954;28;20428;-54
2022/01/10 11:54:15;;;;;;;14.60;8.87;;;12.00;53.60;;;;;;5111637;28;20805;-51
2022/01/10 11:56:47;;;;;;;16.30;8.87;;;11.90;53.50;;;;;;5090531;28;20450;-53
2022/01/10 11:59:27;;;;;;;12.30;9.63;;;11.80;54.10;;;;;;5105744;28;20444;-56
2022/01/10 12:02:03;;;;;;;10.80;8.90;;;11.90;53.80;;;;;;5105697;28;20807;-53
2022/01/10 12:04:40;;;;;;;14.13;8.20;;;11.90;52.80;;;;;;5103648;28;20456;-52
2022/01/10 12:07:08;;;;;;;15.00;8.70;;;12.00;53.20;;;;;;5106388;28;20463;-52
2022/01/10 12:09:35;;;;;;;12.90;8.17;;;11.90;53.00;;;;;;5098880;28;20430;-54
2022/01/10 12:12:02;;;;;;;10.93;8.50;;;12.00;53.00;;;;;;5106747;28;20535;-53
2022/01/10 12:14:29;;;;;;;13.00;8.83;;;11.90;53.20;;;;;;5103997;28;20448;-52
2022/01/10 12:16:56;;;;;;;10.77;9.13;;;11.90;53.00;;;;;;5106323;28;20432;-55
2022/01/10 12:19:22;;;;;;;14.17;9.73;;;11.90;52.70;;;;;;5106835;28;20424;-55
2022/01/10 12:21:48;;;;;;;20.07;9.40;;;12.00;52.60;;;;;;5100682;28;20489;-55
2022/01/10 12:24:14;;;;;;;11.23;8.43;;;11.90;53.00;;;;;;5107120;28;20785;-55
2022/01/10 12:26:41;;;;;;;16.67;9.63;;;11.80;52.90;;;;;;5108372;28;20424;-55
2022/01/10 12:29:09;;;;;;;11.60;9.40;;;11.70;53.50;;;;;;5109198;28;20909;-55
2022/01/10 12:31:37;;;;;;;17.57;9.00;;;11.70;53.60;;;;;;5109079;28;20431;-55
2022/01/10 12:34:04;;;;;;;13.93;9.47;;;11.50;53.90;;;;;;5106831;28;20477;-55
2022/01/10 12:36:32;;;;;;;18.70;9.57;;;11.60;54.00;;;;;;5104351;28;20432;-54
2022/01/10 12:39:04;;;;;;;16.33;10.20;;;11.70;53.90;;;;;;5107706;28;20900;-55
2022/01/10 12:41:32;;;;;;;20.70;10.10;;;11.70;53.50;;;;;;5107399;28;20524;-55
2022/01/10 12:43:57;;;;;;;12.97;9.73;;;11.80;53.30;;;;;;5107827;28;20838;-54
2022/01/10 12:46:24;;;;;;;17.13;11.30;;;11.80;53.20;;;;;;5105679;28;20438;-52
2022/01/10 12:48:51;;;;;;;19.80;11.27;;;11.80;53.30;;;;;;5105728;28;20198;-52
2022/01/10 12:51:19;;;;;;;13.70;10.50;;;11.80;53.90;;;;;;5110182;28;21006;-52
2022/01/10 12:53:48;;;;;;;16.93;10.50;;;11.90;53.40;;;;;;5108651;28;20972;-52